PWSweather.com
Personal Weather Stations
Station Observations
N3SME
Betz Creek, Wilmington Island, Savannah, GA 31410

Betz Creek, Wilmington IslandSavannah, GA 31410

Lat: 32.023021, Lon: -80.959452

Elevation: 15

Station Type: Ambient

High Low Average
Temperature 45.6°F7.6°F 30.5°F-0.8°F 37.2°F2.9°F
Dew Point 0.3°F-17.6°F -15.4°F-26.3°F -8.6°F-22.6°F
Winds 21.0 mph WNW33.8 mph WNW Calm Calm 6.3 mph 10.1 mph
Wind Gusts 61.3 mph98.7 mph 5.1 mph8.2 mph 26.7 mph43.0 mph
Humidity 26% 11% 14%
Pressure 30.13 in1020.30 in 29.96 in1014.60 in -
Precipitation 0.00 in0.00 in - -
Hour Temp Dew Point Humidity Winds Wind Gusts Pressure Precip Precip Rate Daily Precip Total
12:00 AM 36.6°F2.6°C -12.9°F-24.9°C 11% 1.8 mph WSW2.9 kmh WSW 22.8 mph36.7 kmh 29.96 in1014.6 mb 0.00 in0.0 mm 0.00 in0.0 mm 0.00 in0.0 mm
12:15 AM 36.2°F2.3°C -13.2°F-25.1°C 11% Calm Calm 22.8 mph36.7 kmh 29.96 in1014.6 mb 0.00 in0.0 mm 0.00 in0.0 mm 0.00 in0.0 mm
12:30 AM 35.9°F2.2°C -13.5°F-25.3°C 11% Calm Calm 22.8 mph36.7 kmh 29.97 in1014.9 mb 0.00 in0.0 mm 0.00 in0.0 mm 0.00 in0.0 mm
12:45 AM 35.5°F1.9°C -13.7°F-25.4°C 11% 5.1 mph WSW8.2 kmh WSW 19.2 mph30.9 kmh 29.97 in1014.9 mb 0.00 in0.0 mm 0.00 in0.0 mm 0.00 in0.0 mm
01:00 AM 35.3°F1.8°C -13.9°F-25.5°C 11% 3.6 mph W5.8 kmh W 29.8 mph48.0 kmh 29.96 in1014.6 mb 0.00 in0.0 mm 0.00 in0.0 mm 0.00 in0.0 mm
01:15 AM 35.1°F1.7°C -14.0°F-25.6°C 11% 1.8 mph W2.9 kmh W 19.2 mph30.9 kmh 29.97 in1014.9 mb 0.00 in0.0 mm 0.00 in0.0 mm 0.00 in0.0 mm
01:30 AM 35.0°F1.7°C -14.2°F-25.7°C 11% 3.6 mph WSW5.8 kmh WSW 15.7 mph25.3 kmh 29.97 in1014.9 mb 0.00 in0.0 mm 0.00 in0.0 mm 0.00 in0.0 mm
01:45 AM 34.4°F1.3°C -14.6°F-25.9°C 11% 6.9 mph W11.1 kmh W 14.1 mph22.7 kmh 29.97 in1014.9 mb 0.00 in0.0 mm 0.00 in0.0 mm 0.00 in0.0 mm
02:00 AM 34.1°F1.2°C -14.9°F-26.1°C 11% Calm Calm 14.1 mph22.7 kmh 29.97 in1014.9 mb 0.00 in0.0 mm 0.00 in0.0 mm 0.00 in0.0 mm
02:15 AM 33.5°F0.8°C -12.0°F-24.4°C 13% 1.8 mph W2.9 kmh W 8.7 mph14.0 kmh 29.98 in1015.2 mb 0.00 in0.0 mm 0.00 in0.0 mm 0.00 in0.0 mm
02:30 AM 33.3°F0.7°C -9.3°F-22.9°C 15% Calm Calm 10.5 mph16.9 kmh 29.98 in1015.2 mb 0.00 in0.0 mm 0.00 in0.0 mm 0.00 in0.0 mm
02:45 AM 33.3°F0.7°C -9.3°F-22.9°C 15% 1.8 mph WSW2.9 kmh WSW 17.4 mph28.0 kmh 29.97 in1014.9 mb 0.00 in0.0 mm 0.00 in0.0 mm 0.00 in0.0 mm
03:00 AM 33.0°F0.6°C -8.2°F-22.3°C 16% 5.1 mph W8.2 kmh W 14.1 mph22.7 kmh 29.97 in1014.9 mb 0.00 in0.0 mm 0.00 in0.0 mm 0.00 in0.0 mm
03:15 AM 32.8°F0.4°C -6.0°F-21.1°C 18% Calm Calm 10.5 mph16.9 kmh 29.97 in1014.9 mb 0.00 in0.0 mm 0.00 in0.0 mm 0.00 in0.0 mm
03:30 AM 32.6°F0.3°C -5.0°F-20.6°C 19% 1.8 mph SW2.9 kmh SW 12.3 mph19.8 kmh 29.97 in1014.9 mb 0.00 in0.0 mm 0.00 in0.0 mm 0.00 in0.0 mm
03:45 AM 32.4°F0.2°C -4.1°F-20.1°C 20% Calm Calm 10.5 mph16.9 kmh 29.97 in1014.9 mb 0.00 in0.0 mm 0.00 in0.0 mm 0.00 in0.0 mm
04:00 AM 32.3°F0.2°C -3.2°F-19.6°C 21% Calm Calm 10.5 mph16.9 kmh 29.97 in1014.9 mb 0.00 in0.0 mm 0.00 in0.0 mm 0.00 in0.0 mm
04:15 AM 32.1°F0.1°C -2.4°F-19.1°C 22% 1.8 mph WSW2.9 kmh WSW 10.5 mph16.9 kmh 29.97 in1014.9 mb 0.00 in0.0 mm 0.00 in0.0 mm 0.00 in0.0 mm
04:30 AM 31.9°F-0.1°C -1.6°F-18.7°C 23% 5.1 mph WSW8.2 kmh WSW 12.3 mph19.8 kmh 29.97 in1014.9 mb 0.00 in0.0 mm 0.00 in0.0 mm 0.00 in0.0 mm
04:45 AM 31.9°F-0.1°C -1.6°F-18.7°C 23% 3.6 mph W5.8 kmh W 12.3 mph19.8 kmh 29.98 in1015.2 mb 0.00 in0.0 mm 0.00 in0.0 mm 0.00 in0.0 mm
05:00 AM 31.7°F-0.2°C -0.9°F-18.3°C 24% Calm Calm 10.5 mph16.9 kmh 29.98 in1015.2 mb 0.00 in0.0 mm 0.00 in0.0 mm 0.00 in0.0 mm
05:15 AM 31.7°F-0.2°C -0.9°F-18.3°C 24% Calm Calm 14.1 mph22.7 kmh 29.98 in1015.2 mb 0.00 in0.0 mm 0.00 in0.0 mm 0.00 in0.0 mm
05:30 AM 31.5°F-0.3°C -0.2°F-17.9°C 25% Calm Calm 10.5 mph16.9 kmh 29.99 in1015.6 mb 0.00 in0.0 mm 0.00 in0.0 mm 0.00 in0.0 mm
05:45 AM 31.4°F-0.3°C -0.3°F-17.9°C 25% 3.6 mph NW5.8 kmh NW 15.7 mph25.3 kmh 30.00 in1015.9 mb 0.00 in0.0 mm 0.00 in0.0 mm 0.00 in0.0 mm
06:00 AM 31.2°F-0.4°C 0.3°F-17.6°C 26% Calm Calm 12.3 mph19.8 kmh 29.99 in1015.6 mb 0.00 in0.0 mm 0.00 in0.0 mm 0.00 in0.0 mm
06:15 AM 31.0°F-0.6°C 0.2°F-17.7°C 26% 1.8 mph NW2.9 kmh NW 15.7 mph25.3 kmh 30.00 in1015.9 mb 0.00 in0.0 mm 0.00 in0.0 mm 0.00 in0.0 mm
06:30 AM 31.0°F-0.6°C -1.5°F-18.6°C 24% 1.8 mph WNW2.9 kmh WNW 26.2 mph42.2 kmh 30.01 in1016.3 mb 0.00 in0.0 mm 0.00 in0.0 mm 0.00 in0.0 mm
06:45 AM 31.0°F-0.6°C -2.4°F-19.1°C 23% 1.8 mph W2.9 kmh W 26.2 mph42.2 kmh 30.01 in1016.3 mb 0.00 in0.0 mm 0.00 in0.0 mm 0.00 in0.0 mm
07:00 AM 30.6°F-0.8°C -2.7°F-19.3°C 23% 3.6 mph WSW5.8 kmh WSW 31.5 mph50.7 kmh 30.01 in1016.3 mb 0.00 in0.0 mm 0.00 in0.0 mm 0.00 in0.0 mm
07:15 AM 30.6°F-0.8°C -2.7°F-19.3°C 23% 5.1 mph W8.2 kmh W 35.1 mph56.5 kmh 30.01 in1016.3 mb 0.00 in0.0 mm 0.00 in0.0 mm 0.00 in0.0 mm
07:30 AM 30.5°F-0.8°C -2.9°F-19.4°C 23% 3.6 mph WNW5.8 kmh WNW 26.2 mph42.2 kmh 30.01 in1016.3 mb 0.00 in0.0 mm 0.00 in0.0 mm 0.00 in0.0 mm
07:45 AM 30.6°F-0.8°C -2.7°F-19.3°C 23% 10.5 mph WNW16.9 kmh WNW 22.8 mph36.7 kmh 30.02 in1016.6 mb 0.00 in0.0 mm 0.00 in0.0 mm 0.00 in0.0 mm
08:00 AM 31.0°F-0.6°C -2.4°F-19.1°C 23% 6.9 mph WNW11.1 kmh WNW 26.2 mph42.2 kmh 30.03 in1016.9 mb 0.00 in0.0 mm 0.00 in0.0 mm 0.00 in0.0 mm
08:15 AM 31.2°F-0.4°C -4.1°F-20.1°C 21% 5.1 mph W8.2 kmh W 29.8 mph48.0 kmh 30.04 in1017.3 mb 0.00 in0.0 mm 0.00 in0.0 mm 0.00 in0.0 mm
08:30 AM 31.7°F-0.2°C -5.8°F-21.0°C 19% 6.9 mph WNW11.1 kmh WNW 28.0 mph45.1 kmh 30.04 in1017.3 mb 0.00 in0.0 mm 0.00 in0.0 mm 0.00 in0.0 mm
08:45 AM 32.1°F0.1°C -7.7°F-22.1°C 17% 21.0 mph WNW33.8 kmh WNW 47.2 mph76.0 kmh 30.04 in1017.3 mb 0.00 in0.0 mm 0.00 in0.0 mm 0.00 in0.0 mm
09:00 AM 32.8°F0.4°C -8.4°F-22.4°C 16% 3.6 mph W5.8 kmh W 35.1 mph56.5 kmh 30.04 in1017.3 mb 0.00 in0.0 mm 0.00 in0.0 mm 0.00 in0.0 mm
09:15 AM 33.0°F0.6°C -10.9°F-23.8°C 14% 14.1 mph NW22.7 kmh NW 36.7 mph59.1 kmh 30.04 in1017.3 mb 0.00 in0.0 mm 0.00 in0.0 mm 0.00 in0.0 mm
09:30 AM 33.3°F0.7°C -15.4°F-26.3°C 11% 8.7 mph WSW14.0 kmh WSW 40.3 mph64.9 kmh 30.04 in1017.3 mb 0.00 in0.0 mm 0.00 in0.0 mm 0.00 in0.0 mm
09:45 AM 33.9°F1.1°C -15.0°F-26.1°C 11% 5.1 mph NW8.2 kmh NW 42.1 mph67.8 kmh 30.04 in1017.3 mb 0.00 in0.0 mm 0.00 in0.0 mm 0.00 in0.0 mm
10:00 AM 36.2°F2.3°C -13.2°F-25.1°C 11% 12.3 mph NW19.8 kmh NW 29.8 mph48.0 kmh 30.04 in1017.3 mb 0.00 in0.0 mm 0.00 in0.0 mm 0.00 in0.0 mm
10:15 AM 36.6°F2.6°C -12.9°F-24.9°C 11% 6.9 mph WNW11.1 kmh WNW 45.4 mph73.1 kmh 30.04 in1017.3 mb 0.00 in0.0 mm 0.00 in0.0 mm 0.00 in0.0 mm
10:30 AM 37.8°F3.2°C -11.9°F-24.4°C 11% 6.9 mph NW11.1 kmh NW 45.4 mph73.1 kmh 30.04 in1017.3 mb 0.00 in0.0 mm 0.00 in0.0 mm 0.00 in0.0 mm
10:45 AM 38.0°F3.3°C -11.8°F-24.3°C 11% 10.5 mph WNW16.9 kmh WNW 43.8 mph70.5 kmh 30.04 in1017.3 mb 0.00 in0.0 mm 0.00 in0.0 mm 0.00 in0.0 mm
11:00 AM 39.1°F3.9°C -10.9°F-23.8°C 11% 3.6 mph W5.8 kmh W 31.5 mph50.7 kmh 30.04 in1017.3 mb 0.00 in0.0 mm 0.00 in0.0 mm 0.00 in0.0 mm
11:15 AM 40.2°F4.6°C -10.1°F-23.4°C 11% 6.9 mph WNW11.1 kmh WNW 36.7 mph59.1 kmh 30.04 in1017.3 mb 0.00 in0.0 mm 0.00 in0.0 mm 0.00 in0.0 mm
11:30 AM 40.0°F4.4°C -10.2°F-23.4°C 11% 15.7 mph W25.3 kmh W 42.1 mph67.8 kmh 30.03 in1016.9 mb 0.00 in0.0 mm 0.00 in0.0 mm 0.00 in0.0 mm
11:45 AM 41.6°F5.3°C -8.9°F-22.7°C 11% 17.4 mph NW28.0 kmh NW 36.7 mph59.1 kmh 30.02 in1016.6 mb 0.00 in0.0 mm 0.00 in0.0 mm 0.00 in0.0 mm
12:00 PM 42.2°F5.7°C -8.5°F-22.5°C 11% 5.1 mph WNW8.2 kmh WNW 33.3 mph53.6 kmh 30.02 in1016.6 mb 0.00 in0.0 mm 0.00 in0.0 mm 0.00 in0.0 mm
12:15 PM 42.2°F5.7°C -8.5°F-22.5°C 11% 21.0 mph W33.8 kmh W 57.7 mph92.9 kmh 30.02 in1016.6 mb 0.00 in0.0 mm 0.00 in0.0 mm 0.00 in0.0 mm
12:30 PM 42.2°F5.7°C -8.5°F-22.5°C 11% 14.1 mph NW22.7 kmh NW 59.5 mph95.8 kmh 30.01 in1016.3 mb 0.00 in0.0 mm 0.00 in0.0 mm 0.00 in0.0 mm
12:45 PM 43.4°F6.3°C -7.5°F-21.9°C 11% 10.5 mph WNW16.9 kmh WNW 35.1 mph56.5 kmh 30.00 in1015.9 mb 0.00 in0.0 mm 0.00 in0.0 mm 0.00 in0.0 mm
01:00 PM 43.4°F6.3°C -7.5°F-21.9°C 11% 15.7 mph NW25.3 kmh NW 49.0 mph78.9 kmh 30.00 in1015.9 mb 0.00 in0.0 mm 0.00 in0.0 mm 0.00 in0.0 mm
01:15 PM 43.8°F6.6°C -7.3°F-21.8°C 11% 10.5 mph W16.9 kmh W 43.8 mph70.5 kmh 30.00 in1015.9 mb 0.00 in0.0 mm 0.00 in0.0 mm 0.00 in0.0 mm
01:30 PM 44.5°F6.9°C -6.7°F-21.5°C 11% 12.3 mph NW19.8 kmh NW 36.7 mph59.1 kmh 29.98 in1015.2 mb 0.00 in0.0 mm 0.00 in0.0 mm 0.00 in0.0 mm
01:45 PM 44.7°F7.1°C -6.6°F-21.4°C 11% 12.3 mph WNW19.8 kmh WNW 40.3 mph64.9 kmh 29.98 in1015.2 mb 0.00 in0.0 mm 0.00 in0.0 mm 0.00 in0.0 mm
02:00 PM 45.0°F7.2°C -6.3°F-21.3°C 11% 14.1 mph WNW22.7 kmh WNW 35.1 mph56.5 kmh 29.98 in1015.2 mb 0.00 in0.0 mm 0.00 in0.0 mm 0.00 in0.0 mm
02:15 PM 45.2°F7.3°C -6.1°F-21.2°C 11% 17.4 mph NW28.0 kmh NW 49.0 mph78.9 kmh 29.98 in1015.2 mb 0.00 in0.0 mm 0.00 in0.0 mm 0.00 in0.0 mm
02:30 PM 45.6°F7.6°C -5.8°F-21.0°C 11% 14.1 mph W22.7 kmh W 38.5 mph62.0 kmh 29.99 in1015.6 mb 0.00 in0.0 mm 0.00 in0.0 mm 0.00 in0.0 mm
02:45 PM 45.2°F7.3°C -6.1°F-21.2°C 11% 17.4 mph WNW28.0 kmh WNW 45.4 mph73.1 kmh 29.99 in1015.6 mb 0.00 in0.0 mm 0.00 in0.0 mm 0.00 in0.0 mm
03:00 PM 44.7°F7.1°C -6.6°F-21.4°C 11% 19.2 mph NW30.9 kmh NW 52.6 mph84.7 kmh 30.00 in1015.9 mb 0.00 in0.0 mm 0.00 in0.0 mm 0.00 in0.0 mm
03:15 PM 45.0°F7.2°C -6.3°F-21.3°C 11% 6.9 mph NW11.1 kmh NW 45.4 mph73.1 kmh 29.99 in1015.6 mb 0.00 in0.0 mm 0.00 in0.0 mm 0.00 in0.0 mm
03:30 PM 44.9°F7.2°C -6.4°F-21.3°C 11% 10.5 mph W16.9 kmh W 40.3 mph64.9 kmh 29.99 in1015.6 mb 0.00 in0.0 mm 0.00 in0.0 mm 0.00 in0.0 mm
03:45 PM 43.6°F6.4°C -7.4°F-21.9°C 11% 14.1 mph W22.7 kmh W 61.3 mph98.7 kmh 30.00 in1015.9 mb 0.00 in0.0 mm 0.00 in0.0 mm 0.00 in0.0 mm
04:00 PM 43.8°F6.6°C -7.3°F-21.8°C 11% 5.1 mph WNW8.2 kmh WNW 28.0 mph45.1 kmh 30.01 in1016.3 mb 0.00 in0.0 mm 0.00 in0.0 mm 0.00 in0.0 mm
04:15 PM 43.6°F6.4°C -7.4°F-21.9°C 11% 21.0 mph WNW33.8 kmh WNW 49.0 mph78.9 kmh 30.01 in1016.3 mb 0.00 in0.0 mm 0.00 in0.0 mm 0.00 in0.0 mm
04:30 PM 42.9°F6.1°C -8.0°F-22.2°C 11% 17.4 mph W28.0 kmh W 49.0 mph78.9 kmh 30.02 in1016.6 mb 0.00 in0.0 mm 0.00 in0.0 mm 0.00 in0.0 mm
04:45 PM 42.3°F5.7°C -8.4°F-22.4°C 11% 17.4 mph WNW28.0 kmh WNW 49.0 mph78.9 kmh 30.03 in1016.9 mb 0.00 in0.0 mm 0.00 in0.0 mm 0.00 in0.0 mm
05:00 PM 42.2°F5.7°C -8.5°F-22.5°C 11% 8.7 mph W14.0 kmh W 38.5 mph62.0 kmh 30.04 in1017.3 mb 0.00 in0.0 mm 0.00 in0.0 mm 0.00 in0.0 mm
05:15 PM 41.8°F5.4°C -8.8°F-22.7°C 11% 17.4 mph W28.0 kmh W 42.1 mph67.8 kmh 30.04 in1017.3 mb 0.00 in0.0 mm 0.00 in0.0 mm 0.00 in0.0 mm
05:30 PM 41.3°F5.2°C -9.2°F-22.9°C 11% 10.5 mph NW16.9 kmh NW 40.3 mph64.9 kmh 30.05 in1017.6 mb 0.00 in0.0 mm 0.00 in0.0 mm 0.00 in0.0 mm
05:45 PM 40.9°F4.9°C -9.5°F-23.1°C 11% 12.3 mph NW19.8 kmh NW 45.4 mph73.1 kmh 30.06 in1017.9 mb 0.00 in0.0 mm 0.00 in0.0 mm 0.00 in0.0 mm
06:00 PM 40.5°F4.7°C -9.8°F-23.2°C 11% 8.7 mph W14.0 kmh W 38.5 mph62.0 kmh 30.07 in1018.3 mb 0.00 in0.0 mm 0.00 in0.0 mm 0.00 in0.0 mm
06:15 PM 40.2°F4.6°C -10.1°F-23.4°C 11% 5.1 mph WNW8.2 kmh WNW 33.3 mph53.6 kmh 30.08 in1018.6 mb 0.00 in0.0 mm 0.00 in0.0 mm 0.00 in0.0 mm
06:30 PM 39.8°F4.3°C -10.4°F-23.6°C 11% 5.1 mph WNW8.2 kmh WNW 28.0 mph45.1 kmh 30.09 in1019.0 mb 0.00 in0.0 mm 0.00 in0.0 mm 0.00 in0.0 mm
06:45 PM 39.6°F4.2°C -10.5°F-23.6°C 11% 6.9 mph W11.1 kmh W 26.2 mph42.2 kmh 30.09 in1019.0 mb 0.00 in0.0 mm 0.00 in0.0 mm 0.00 in0.0 mm
07:00 PM 39.1°F3.9°C -10.9°F-23.8°C 11% Calm Calm 12.3 mph19.8 kmh 30.09 in1019.0 mb 0.00 in0.0 mm 0.00 in0.0 mm 0.00 in0.0 mm
07:15 PM 38.7°F3.7°C -11.2°F-24.0°C 11% Calm Calm 17.4 mph28.0 kmh 30.10 in1019.3 mb 0.00 in0.0 mm 0.00 in0.0 mm 0.00 in0.0 mm
07:30 PM 38.4°F3.6°C -11.5°F-24.2°C 11% 1.8 mph WSW2.9 kmh WSW 14.1 mph22.7 kmh 30.11 in1019.6 mb 0.00 in0.0 mm 0.00 in0.0 mm 0.00 in0.0 mm
07:45 PM 38.2°F3.4°C -11.6°F-24.2°C 11% 5.1 mph SW8.2 kmh SW 12.3 mph19.8 kmh 30.10 in1019.3 mb 0.00 in0.0 mm 0.00 in0.0 mm 0.00 in0.0 mm
08:00 PM 38.0°F3.3°C -11.8°F-24.3°C 11% 3.6 mph NW5.8 kmh NW 10.5 mph16.9 kmh 30.11 in1019.6 mb 0.00 in0.0 mm 0.00 in0.0 mm 0.00 in0.0 mm
08:15 PM 37.7°F3.2°C -12.0°F-24.4°C 11% 1.8 mph SW2.9 kmh SW 8.7 mph14.0 kmh 30.11 in1019.6 mb 0.00 in0.0 mm 0.00 in0.0 mm 0.00 in0.0 mm
08:30 PM 37.8°F3.2°C -11.9°F-24.4°C 11% Calm Calm 14.1 mph22.7 kmh 30.11 in1019.6 mb 0.00 in0.0 mm 0.00 in0.0 mm 0.00 in0.0 mm
08:45 PM 37.5°F3.1°C -12.2°F-24.6°C 11% Calm Calm 10.5 mph16.9 kmh 30.11 in1019.6 mb 0.00 in0.0 mm 0.00 in0.0 mm 0.00 in0.0 mm
09:00 PM 37.1°F2.8°C -12.5°F-24.7°C 11% Calm Calm 8.7 mph14.0 kmh 30.11 in1019.6 mb 0.00 in0.0 mm 0.00 in0.0 mm 0.00 in0.0 mm
09:15 PM 36.8°F2.7°C -12.7°F-24.8°C 11% Calm Calm 10.5 mph16.9 kmh 30.11 in1019.6 mb 0.00 in0.0 mm 0.00 in0.0 mm 0.00 in0.0 mm
09:30 PM 36.4°F2.4°C -13.0°F-25.0°C 11% 1.8 mph SW2.9 kmh SW 10.5 mph16.9 kmh 30.11 in1019.6 mb 0.00 in0.0 mm 0.00 in0.0 mm 0.00 in0.0 mm
09:45 PM 36.2°F2.3°C -13.2°F-25.1°C 11% Calm Calm 5.1 mph8.2 kmh 30.12 in1020.0 mb 0.00 in0.0 mm 0.00 in0.0 mm 0.00 in0.0 mm
10:00 PM 36.2°F2.3°C -13.2°F-25.1°C 11% Calm Calm 12.3 mph19.8 kmh 30.12 in1020.0 mb 0.00 in0.0 mm 0.00 in0.0 mm 0.00 in0.0 mm
10:15 PM 36.6°F2.6°C -12.9°F-24.9°C 11% Calm Calm 10.5 mph16.9 kmh 30.11 in1019.6 mb 0.00 in0.0 mm 0.00 in0.0 mm 0.00 in0.0 mm
10:30 PM 36.8°F2.7°C -12.7°F-24.8°C 11% 1.8 mph WSW2.9 kmh WSW 10.5 mph16.9 kmh 30.11 in1019.6 mb 0.00 in0.0 mm 0.00 in0.0 mm 0.00 in0.0 mm
10:45 PM 36.9°F2.7°C -12.6°F-24.8°C 11% 1.8 mph SW2.9 kmh SW 10.5 mph16.9 kmh 30.12 in1020.0 mb 0.00 in0.0 mm 0.00 in0.0 mm 0.00 in0.0 mm
11:00 PM 36.9°F2.7°C -12.6°F-24.8°C 11% 3.6 mph SW5.8 kmh SW 8.7 mph14.0 kmh 30.13 in1020.3 mb 0.00 in0.0 mm 0.00 in0.0 mm 0.00 in0.0 mm
11:15 PM 36.9°F2.7°C -12.6°F-24.8°C 11% 3.6 mph W5.8 kmh W 10.5 mph16.9 kmh 30.12 in1020.0 mb 0.00 in0.0 mm 0.00 in0.0 mm 0.00 in0.0 mm
11:30 PM 37.1°F2.8°C -12.5°F-24.7°C 11% 1.8 mph SW2.9 kmh SW 6.9 mph11.1 kmh 30.13 in1020.3 mb 0.00 in0.0 mm 0.00 in0.0 mm 0.00 in0.0 mm
11:45 PM 37.3°F2.9°C -12.3°F-24.6°C 11% 1.8 mph SW2.9 kmh SW 17.4 mph28.0 kmh 30.13 in1020.3 mb 0.00 in0.0 mm 0.00 in0.0 mm 0.00 in0.0 mm